sensor_id;sensor_type;location;lat;lon;timestamp;P1;durP1;ratioP1;P2;durP2;ratioP2
47021;SDS011;32779;52.264;6.154;2024-03-08T00:00:07;36.92;;;20.63;;
47021;SDS011;32779;52.264;6.154;2024-03-08T00:02:40;40.15;;;20.45;;
47021;SDS011;32779;52.264;6.154;2024-03-08T00:05:10;35.47;;;19.52;;
47021;SDS011;32779;52.264;6.154;2024-03-08T00:10:02;34.78;;;20.02;;
47021;SDS011;32779;52.264;6.154;2024-03-08T00:12:29;35.65;;;19.17;;
47021;SDS011;32779;52.264;6.154;2024-03-08T00:14:54;38.10;;;20.08;;
47021;SDS011;32779;52.264;6.154;2024-03-08T00:17:20;39.72;;;20.02;;
47021;SDS011;32779;52.264;6.154;2024-03-08T00:19:49;37.28;;;20.20;;
47021;SDS011;32779;52.264;6.154;2024-03-08T00:22:15;35.85;;;20.02;;
47021;SDS011;32779;52.264;6.154;2024-03-08T00:24:41;41.53;;;20.35;;
47021;SDS011;32779;52.264;6.154;2024-03-08T00:27:07;39.38;;;19.40;;
47021;SDS011;32779;52.264;6.154;2024-03-08T00:29:34;35.90;;;19.67;;
47021;SDS011;32779;52.264;6.154;2024-03-08T00:31:59;36.75;;;20.13;;
47021;SDS011;32779;52.264;6.154;2024-03-08T00:34:26;39.42;;;20.10;;
47021;SDS011;32779;52.264;6.154;2024-03-08T00:36:51;34.35;;;19.80;;
47021;SDS011;32779;52.264;6.154;2024-03-08T00:39:17;38.65;;;19.67;;
47021;SDS011;32779;52.264;6.154;2024-03-08T00:41:45;37.13;;;19.30;;
47021;SDS011;32779;52.264;6.154;2024-03-08T00:44:10;36.25;;;20.35;;
47021;SDS011;32779;52.264;6.154;2024-03-08T00:46:36;38.42;;;20.00;;
47021;SDS011;32779;52.264;6.154;2024-03-08T00:49:01;36.95;;;20.17;;
47021;SDS011;32779;52.264;6.154;2024-03-08T00:51:27;40.45;;;19.83;;
47021;SDS011;32779;52.264;6.154;2024-03-08T00:53:52;38.30;;;21.00;;
47021;SDS011;32779;52.264;6.154;2024-03-08T00:56:18;37.17;;;19.95;;
47021;SDS011;32779;52.264;6.154;2024-03-08T00:58:44;38.33;;;20.20;;
47021;SDS011;32779;52.264;6.154;2024-03-08T01:01:09;41.80;;;20.70;;
47021;SDS011;32779;52.264;6.154;2024-03-08T01:03:35;42.40;;;21.33;;
47021;SDS011;32779;52.264;6.154;2024-03-08T01:08:27;34.80;;;19.33;;
47021;SDS011;32779;52.264;6.154;2024-03-08T01:10:53;43.67;;;19.83;;
47021;SDS011;32779;52.264;6.154;2024-03-08T01:13:19;37.85;;;20.10;;
47021;SDS011;32779;52.264;6.154;2024-03-08T01:15:44;39.90;;;20.45;;
47021;SDS011;32779;52.264;6.154;2024-03-08T01:18:10;42.30;;;22.20;;
47021;SDS011;32779;52.264;6.154;2024-03-08T01:20:36;38.40;;;19.77;;
47021;SDS011;32779;52.264;6.154;2024-03-08T01:23:02;39.30;;;20.67;;
47021;SDS011;32779;52.264;6.154;2024-03-08T01:25:32;39.70;;;20.45;;
47021;SDS011;32779;52.264;6.154;2024-03-08T01:27:58;37.13;;;20.67;;
47021;SDS011;32779;52.264;6.154;2024-03-08T01:30:23;38.28;;;20.20;;
47021;SDS011;32779;52.264;6.154;2024-03-08T01:32:49;36.67;;;19.77;;
47021;SDS011;32779;52.264;6.154;2024-03-08T01:35:14;39.72;;;21.13;;
47021;SDS011;32779;52.264;6.154;2024-03-08T01:37:40;35.97;;;20.98;;
47021;SDS011;32779;52.264;6.154;2024-03-08T01:40:06;35.67;;;20.80;;
47021;SDS011;32779;52.264;6.154;2024-03-08T01:42:33;37.97;;;20.85;;
47021;SDS011;32779;52.264;6.154;2024-03-08T01:45:02;41.83;;;21.08;;
47021;SDS011;32779;52.264;6.154;2024-03-08T01:47:31;38.35;;;19.88;;
47021;SDS011;32779;52.264;6.154;2024-03-08T01:52:25;46.78;;;20.77;;
47021;SDS011;32779;52.264;6.154;2024-03-08T01:54:51;34.05;;;19.27;;
47021;SDS011;32779;52.264;6.154;2024-03-08T01:57:17;41.17;;;21.55;;
47021;SDS011;32779;52.264;6.154;2024-03-08T01:59:42;37.42;;;20.42;;
47021;SDS011;32779;52.264;6.154;2024-03-08T02:02:08;42.63;;;21.65;;
47021;SDS011;32779;52.264;6.154;2024-03-08T02:04:36;35.30;;;20.17;;
47021;SDS011;32779;52.264;6.154;2024-03-08T02:07:03;35.28;;;19.58;;
47021;SDS011;32779;52.264;6.154;2024-03-08T02:09:30;41.22;;;21.77;;
47021;SDS011;32779;52.264;6.154;2024-03-08T02:11:56;40.17;;;21.27;;
47021;SDS011;32779;52.264;6.154;2024-03-08T02:16:48;40.50;;;21.00;;
47021;SDS011;32779;52.264;6.154;2024-03-08T02:19:16;35.75;;;20.98;;
47021;SDS011;32779;52.264;6.154;2024-03-08T02:21:41;39.22;;;21.00;;
47021;SDS011;32779;52.264;6.154;2024-03-08T02:24:08;41.30;;;21.25;;
47021;SDS011;32779;52.264;6.154;2024-03-08T02:26:34;38.97;;;21.15;;
47021;SDS011;32779;52.264;6.154;2024-03-08T02:29:00;39.03;;;21.08;;
47021;SDS011;32779;52.264;6.154;2024-03-08T02:31:27;38.50;;;21.17;;
47021;SDS011;32779;52.264;6.154;2024-03-08T02:33:52;36.78;;;20.80;;
47021;SDS011;32779;52.264;6.154;2024-03-08T02:36:18;40.78;;;22.52;;
47021;SDS011;32779;52.264;6.154;2024-03-08T02:38:43;39.58;;;22.15;;
47021;SDS011;32779;52.264;6.154;2024-03-08T02:41:09;39.88;;;21.10;;
47021;SDS011;32779;52.264;6.154;2024-03-08T02:43:35;38.03;;;21.92;;
47021;SDS011;32779;52.264;6.154;2024-03-08T02:46:01;41.78;;;21.65;;
47021;SDS011;32779;52.264;6.154;2024-03-08T02:48:27;38.15;;;20.85;;
47021;SDS011;32779;52.264;6.154;2024-03-08T02:50:52;38.45;;;21.90;;
47021;SDS011;32779;52.264;6.154;2024-03-08T02:53:18;36.58;;;21.50;;
47021;SDS011;32779;52.264;6.154;2024-03-08T02:55:44;35.45;;;20.40;;
47021;SDS011;32779;52.264;6.154;2024-03-08T02:58:09;36.45;;;21.48;;
47021;SDS011;32779;52.264;6.154;2024-03-08T03:00:38;36.80;;;21.90;;
47021;SDS011;32779;52.264;6.154;2024-03-08T03:03:04;37.47;;;22.95;;
47021;SDS011;32779;52.264;6.154;2024-03-08T03:05:31;37.47;;;20.60;;
47021;SDS011;32779;52.264;6.154;2024-03-08T03:07:57;37.03;;;21.10;;
47021;SDS011;32779;52.264;6.154;2024-03-08T03:12:48;37.28;;;21.77;;
47021;SDS011;32779;52.264;6.154;2024-03-08T03:15:14;38.85;;;21.58;;
47021;SDS011;32779;52.264;6.154;2024-03-08T03:17:45;40.78;;;21.63;;
47021;SDS011;32779;52.264;6.154;2024-03-08T03:20:17;37.20;;;22.17;;
47021;SDS011;32779;52.264;6.154;2024-03-08T03:22:51;42.50;;;22.23;;
47021;SDS011;32779;52.264;6.154;2024-03-08T03:25:18;39.45;;;22.48;;
47021;SDS011;32779;52.264;6.154;2024-03-08T03:27:50;37.83;;;22.15;;
47021;SDS011;32779;52.264;6.154;2024-03-08T03:30:17;40.72;;;21.38;;
47021;SDS011;32779;52.264;6.154;2024-03-08T03:32:51;40.75;;;21.52;;
47021;SDS011;32779;52.264;6.154;2024-03-08T03:35:17;39.08;;;22.80;;
47021;SDS011;32779;52.264;6.154;2024-03-08T03:37:45;41.17;;;22.85;;
47021;SDS011;32779;52.264;6.154;2024-03-08T03:40:26;40.22;;;23.02;;
47021;SDS011;32779;52.264;6.154;2024-03-08T03:42:53;40.90;;;22.58;;
47021;SDS011;32779;52.264;6.154;2024-03-08T03:45:18;40.78;;;22.13;;
47021;SDS011;32779;52.264;6.154;2024-03-08T03:47:45;39.33;;;22.88;;
47021;SDS011;32779;52.264;6.154;2024-03-08T03:50:11;39.75;;;21.52;;
47021;SDS011;32779;52.264;6.154;2024-03-08T03:52:36;42.15;;;21.85;;
47021;SDS011;32779;52.264;6.154;2024-03-08T03:55:02;37.45;;;22.15;;
47021;SDS011;32779;52.264;6.154;2024-03-08T03:57:29;40.08;;;23.45;;
47021;SDS011;32779;52.264;6.154;2024-03-08T03:59:55;40.05;;;21.90;;
47021;SDS011;32779;52.264;6.154;2024-03-08T04:02:23;37.17;;;21.23;;
47021;SDS011;32779;52.264;6.154;2024-03-08T04:04:49;35.92;;;21.88;;
47021;SDS011;32779;52.264;6.154;2024-03-08T04:07:14;35.60;;;21.80;;
47021;SDS011;32779;52.264;6.154;2024-03-08T04:09:40;36.13;;;23.02;;
47021;SDS011;32779;52.264;6.154;2024-03-08T04:12:06;36.22;;;21.75;;
47021;SDS011;32779;52.264;6.154;2024-03-08T04:14:32;36.88;;;21.60;;
47021;SDS011;32779;52.264;6.154;2024-03-08T04:16:59;41.47;;;22.80;;
47021;SDS011;32779;52.264;6.154;2024-03-08T04:19:25;37.90;;;21.92;;
47021;SDS011;32779;52.264;6.154;2024-03-08T04:21:52;36.90;;;21.42;;
47021;SDS011;32779;52.264;6.154;2024-03-08T04:24:18;39.92;;;22.05;;
47021;SDS011;32779;52.264;6.154;2024-03-08T04:26:45;39.60;;;22.77;;
47021;SDS011;32779;52.264;6.154;2024-03-08T04:29:11;36.40;;;22.25;;
47021;SDS011;32779;52.264;6.154;2024-03-08T04:31:39;37.50;;;22.30;;
47021;SDS011;32779;52.264;6.154;2024-03-08T04:34:05;36.58;;;22.33;;
47021;SDS011;32779;52.264;6.154;2024-03-08T04:36:31;36.20;;;21.85;;
47021;SDS011;32779;52.264;6.154;2024-03-08T04:38:56;35.53;;;22.35;;
47021;SDS011;32779;52.264;6.154;2024-03-08T04:41:22;36.22;;;22.27;;
47021;SDS011;32779;52.264;6.154;2024-03-08T04:43:48;39.35;;;22.70;;
47021;SDS011;32779;52.264;6.154;2024-03-08T04:46:14;40.25;;;23.25;;
47021;SDS011;32779;52.264;6.154;2024-03-08T04:48:41;35.35;;;22.02;;
47021;SDS011;32779;52.264;6.154;2024-03-08T04:51:08;36.60;;;22.20;;
47021;SDS011;32779;52.264;6.154;2024-03-08T04:56:00;34.13;;;21.17;;
47021;SDS011;32779;52.264;6.154;2024-03-08T04:58:30;39.40;;;23.40;;
47021;SDS011;32779;52.264;6.154;2024-03-08T05:00:57;43.42;;;22.85;;
47021;SDS011;32779;52.264;6.154;2024-03-08T05:03:22;41.88;;;22.80;;
47021;SDS011;32779;52.264;6.154;2024-03-08T05:05:51;41.17;;;23.85;;
47021;SDS011;32779;52.264;6.154;2024-03-08T05:08:16;38.60;;;22.42;;
47021;SDS011;32779;52.264;6.154;2024-03-08T05:10:43;36.75;;;22.27;;
47021;SDS011;32779;52.264;6.154;2024-03-08T05:13:09;39.30;;;22.75;;
47021;SDS011;32779;52.264;6.154;2024-03-08T05:15:35;38.55;;;24.02;;
47021;SDS011;32779;52.264;6.154;2024-03-08T05:18:01;35.85;;;22.25;;
47021;SDS011;32779;52.264;6.154;2024-03-08T05:20:27;38.30;;;23.92;;
47021;SDS011;32779;52.264;6.154;2024-03-08T05:22:52;35.67;;;22.80;;
47021;SDS011;32779;52.264;6.154;2024-03-08T05:25:18;38.65;;;22.45;;
47021;SDS011;32779;52.264;6.154;2024-03-08T05:27:43;38.72;;;22.92;;
47021;SDS011;32779;52.264;6.154;2024-03-08T05:30:09;38.17;;;22.83;;
47021;SDS011;32779;52.264;6.154;2024-03-08T05:32:40;39.88;;;24.08;;
47021;SDS011;32779;52.264;6.154;2024-03-08T05:35:09;39.45;;;24.15;;
47021;SDS011;32779;52.264;6.154;2024-03-08T05:37:36;38.75;;;24.42;;
47021;SDS011;32779;52.264;6.154;2024-03-08T05:40:01;42.60;;;24.85;;
47021;SDS011;32779;52.264;6.154;2024-03-08T05:42:28;42.08;;;24.10;;
47021;SDS011;32779;52.264;6.154;2024-03-08T05:44:53;36.13;;;23.42;;
47021;SDS011;32779;52.264;6.154;2024-03-08T05:47:22;39.10;;;22.85;;
47021;SDS011;32779;52.264;6.154;2024-03-08T05:49:47;40.60;;;23.92;;
47021;SDS011;32779;52.264;6.154;2024-03-08T05:52:13;38.70;;;23.98;;
47021;SDS011;32779;52.264;6.154;2024-03-08T05:54:39;39.08;;;24.30;;
47021;SDS011;32779;52.264;6.154;2024-03-08T05:57:06;36.72;;;23.90;;
47021;SDS011;32779;52.264;6.154;2024-03-08T05:59:31;41.47;;;23.67;;
47021;SDS011;32779;52.264;6.154;2024-03-08T06:01:57;43.95;;;25.58;;
47021;SDS011;32779;52.264;6.154;2024-03-08T06:04:22;37.85;;;23.05;;
47021;SDS011;32779;52.264;6.154;2024-03-08T06:06:48;40.72;;;24.25;;
47021;SDS011;32779;52.264;6.154;2024-03-08T06:09:16;40.58;;;23.80;;
47021;SDS011;32779;52.264;6.154;2024-03-08T06:11:48;43.15;;;24.63;;
47021;SDS011;32779;52.264;6.154;2024-03-08T06:14:14;39.92;;;24.83;;
47021;SDS011;32779;52.264;6.154;2024-03-08T06:16:43;43.75;;;25.35;;
47021;SDS011;32779;52.264;6.154;2024-03-08T06:19:10;38.30;;;23.92;;
47021;SDS011;32779;52.264;6.154;2024-03-08T06:21:35;49.20;;;25.58;;
47021;SDS011;32779;52.264;6.154;2024-03-08T06:24:01;42.15;;;25.27;;
47021;SDS011;32779;52.264;6.154;2024-03-08T06:26:27;42.65;;;25.70;;
47021;SDS011;32779;52.264;6.154;2024-03-08T06:28:56;42.25;;;25.77;;
47021;SDS011;32779;52.264;6.154;2024-03-08T06:31:22;41.10;;;25.73;;
47021;SDS011;32779;52.264;6.154;2024-03-08T06:33:47;45.42;;;26.13;;
47021;SDS011;32779;52.264;6.154;2024-03-08T06:36:16;41.88;;;25.20;;
47021;SDS011;32779;52.264;6.154;2024-03-08T06:38:46;40.70;;;25.25;;
47021;SDS011;32779;52.264;6.154;2024-03-08T06:41:14;43.90;;;24.67;;
47021;SDS011;32779;52.264;6.154;2024-03-08T06:43:41;44.25;;;26.25;;
47021;SDS011;32779;52.264;6.154;2024-03-08T06:46:07;39.88;;;24.52;;
47021;SDS011;32779;52.264;6.154;2024-03-08T06:48:33;41.60;;;25.75;;
47021;SDS011;32779;52.264;6.154;2024-03-08T06:51:00;43.22;;;25.23;;
47021;SDS011;32779;52.264;6.154;2024-03-08T06:53:25;44.00;;;26.02;;
47021;SDS011;32779;52.264;6.154;2024-03-08T06:55:51;41.25;;;24.83;;
47021;SDS011;32779;52.264;6.154;2024-03-08T06:58:16;45.45;;;25.30;;
47021;SDS011;32779;52.264;6.154;2024-03-08T07:00:42;45.47;;;26.08;;
47021;SDS011;32779;52.264;6.154;2024-03-08T07:03:09;46.13;;;26.52;;
47021;SDS011;32779;52.264;6.154;2024-03-08T07:05:37;45.50;;;28.05;;
47021;SDS011;32779;52.264;6.154;2024-03-08T07:08:04;45.17;;;26.27;;
47021;SDS011;32779;52.264;6.154;2024-03-08T07:10:31;43.17;;;25.35;;
47021;SDS011;32779;52.264;6.154;2024-03-08T07:12:56;40.58;;;25.25;;
47021;SDS011;32779;52.264;6.154;2024-03-08T07:15:22;47.80;;;25.95;;
47021;SDS011;32779;52.264;6.154;2024-03-08T07:17:48;42.20;;;24.98;;
47021;SDS011;32779;52.264;6.154;2024-03-08T07:20:14;42.08;;;25.50;;
47021;SDS011;32779;52.264;6.154;2024-03-08T07:22:47;41.83;;;25.65;;
47021;SDS011;32779;52.264;6.154;2024-03-08T07:25:13;41.28;;;25.02;;
47021;SDS011;32779;52.264;6.154;2024-03-08T07:27:54;40.38;;;24.85;;
47021;SDS011;32779;52.264;6.154;2024-03-08T07:30:24;42.05;;;24.73;;
47021;SDS011;32779;52.264;6.154;2024-03-08T07:33:08;47.55;;;24.00;;
47021;SDS011;32779;52.264;6.154;2024-03-08T07:35:38;41.78;;;24.98;;
47021;SDS011;32779;52.264;6.154;2024-03-08T07:38:05;38.05;;;23.40;;
47021;SDS011;32779;52.264;6.154;2024-03-08T07:40:38;40.08;;;25.15;;
47021;SDS011;32779;52.264;6.154;2024-03-08T07:43:09;39.03;;;24.38;;
47021;SDS011;32779;52.264;6.154;2024-03-08T07:45:35;43.08;;;24.13;;
47021;SDS011;32779;52.264;6.154;2024-03-08T07:48:01;45.40;;;25.15;;
47021;SDS011;32779;52.264;6.154;2024-03-08T07:50:27;39.55;;;24.48;;
47021;SDS011;32779;52.264;6.154;2024-03-08T07:52:53;43.55;;;24.75;;
47021;SDS011;32779;52.264;6.154;2024-03-08T07:55:19;39.05;;;23.30;;
47021;SDS011;32779;52.264;6.154;2024-03-08T07:57:45;44.05;;;24.70;;
47021;SDS011;32779;52.264;6.154;2024-03-08T08:00:12;42.70;;;24.38;;
47021;SDS011;32779;52.264;6.154;2024-03-08T08:02:42;42.97;;;25.17;;
47021;SDS011;32779;52.264;6.154;2024-03-08T08:05:10;38.60;;;23.80;;
47021;SDS011;32779;52.264;6.154;2024-03-08T08:07:36;39.05;;;23.83;;
47021;SDS011;32779;52.264;6.154;2024-03-08T08:10:01;37.22;;;23.27;;
47021;SDS011;32779;52.264;6.154;2024-03-08T08:12:27;36.03;;;23.10;;
47021;SDS011;32779;52.264;6.154;2024-03-08T08:14:54;38.22;;;22.63;;
47021;SDS011;32779;52.264;6.154;2024-03-08T08:17:19;39.60;;;23.45;;
47021;SDS011;32779;52.264;6.154;2024-03-08T08:19:45;40.70;;;23.13;;
47021;SDS011;32779;52.264;6.154;2024-03-08T08:22:11;37.50;;;23.60;;
47021;SDS011;32779;52.264;6.154;2024-03-08T08:24:36;38.70;;;23.65;;
47021;SDS011;32779;52.264;6.154;2024-03-08T08:27:02;37.50;;;22.23;;
47021;SDS011;32779;52.264;6.154;2024-03-08T08:29:28;37.72;;;23.23;;
47021;SDS011;32779;52.264;6.154;2024-03-08T08:31:55;39.88;;;24.25;;
47021;SDS011;32779;52.264;6.154;2024-03-08T08:34:24;40.63;;;23.15;;
47021;SDS011;32779;52.264;6.154;2024-03-08T08:36:51;37.15;;;22.58;;
47021;SDS011;32779;52.264;6.154;2024-03-08T08:39:18;38.60;;;23.88;;
47021;SDS011;32779;52.264;6.154;2024-03-08T08:41:43;38.78;;;22.27;;
47021;SDS011;32779;52.264;6.154;2024-03-08T08:44:09;39.90;;;23.50;;
47021;SDS011;32779;52.264;6.154;2024-03-08T08:46:37;39.60;;;24.13;;
47021;SDS011;32779;52.264;6.154;2024-03-08T08:49:03;39.05;;;24.67;;
47021;SDS011;32779;52.264;6.154;2024-03-08T08:51:30;38.33;;;22.73;;
47021;SDS011;32779;52.264;6.154;2024-03-08T08:56:21;40.00;;;22.30;;
47021;SDS011;32779;52.264;6.154;2024-03-08T08:58:47;37.05;;;22.95;;
47021;SDS011;32779;52.264;6.154;2024-03-08T09:01:14;37.80;;;22.55;;
47021;SDS011;32779;52.264;6.154;2024-03-08T09:03:40;40.88;;;24.98;;
47021;SDS011;32779;52.264;6.154;2024-03-08T09:06:06;38.33;;;23.02;;
47021;SDS011;32779;52.264;6.154;2024-03-08T09:08:35;36.45;;;23.25;;
47021;SDS011;32779;52.264;6.154;2024-03-08T09:11:02;38.67;;;21.98;;
47021;SDS011;32779;52.264;6.154;2024-03-08T09:13:27;38.80;;;23.38;;
47021;SDS011;32779;52.264;6.154;2024-03-08T09:15:53;37.50;;;23.90;;
47021;SDS011;32779;52.264;6.154;2024-03-08T09:18:18;38.92;;;24.67;;
47021;SDS011;32779;52.264;6.154;2024-03-08T09:20:44;35.65;;;23.15;;
47021;SDS011;32779;52.264;6.154;2024-03-08T09:23:10;36.50;;;22.38;;
47021;SDS011;32779;52.264;6.154;2024-03-08T09:25:35;36.60;;;22.40;;
47021;SDS011;32779;52.264;6.154;2024-03-08T09:28:01;36.53;;;21.88;;
47021;SDS011;32779;52.264;6.154;2024-03-08T09:30:27;37.90;;;22.00;;
47021;SDS011;32779;52.264;6.154;2024-03-08T09:32:52;38.13;;;23.02;;
47021;SDS011;32779;52.264;6.154;2024-03-08T09:35:20;38.45;;;23.42;;
47021;SDS011;32779;52.264;6.154;2024-03-08T09:37:46;36.78;;;22.08;;
47021;SDS011;32779;52.264;6.154;2024-03-08T09:40:16;37.38;;;22.85;;
47021;SDS011;32779;52.264;6.154;2024-03-08T09:42:45;33.97;;;21.85;;
47021;SDS011;32779;52.264;6.154;2024-03-08T09:45:12;36.50;;;23.10;;
47021;SDS011;32779;52.264;6.154;2024-03-08T09:47:41;38.15;;;22.52;;
47021;SDS011;32779;52.264;6.154;2024-03-08T09:50:10;41.15;;;23.50;;
47021;SDS011;32779;52.264;6.154;2024-03-08T09:52:41;35.80;;;22.23;;
47021;SDS011;32779;52.264;6.154;2024-03-08T09:55:09;37.63;;;22.90;;
47021;SDS011;32779;52.264;6.154;2024-03-08T09:57:36;33.55;;;21.35;;
47021;SDS011;32779;52.264;6.154;2024-03-08T10:00:03;36.65;;;23.20;;
47021;SDS011;32779;52.264;6.154;2024-03-08T10:02:49;38.70;;;22.85;;
47021;SDS011;32779;52.264;6.154;2024-03-08T10:05:17;36.65;;;22.48;;
47021;SDS011;32779;52.264;6.154;2024-03-08T10:07:43;33.08;;;22.02;;
47021;SDS011;32779;52.264;6.154;2024-03-08T10:10:09;35.05;;;21.83;;
47021;SDS011;32779;52.264;6.154;2024-03-08T10:12:37;36.45;;;22.75;;
47021;SDS011;32779;52.264;6.154;2024-03-08T10:15:03;35.67;;;22.20;;
47021;SDS011;32779;52.264;6.154;2024-03-08T10:17:37;35.95;;;21.83;;
47021;SDS011;32779;52.264;6.154;2024-03-08T10:20:09;31.80;;;21.73;;
47021;SDS011;32779;52.264;6.154;2024-03-08T10:22:42;34.60;;;22.83;;
47021;SDS011;32779;52.264;6.154;2024-03-08T10:25:10;34.25;;;22.13;;
47021;SDS011;32779;52.264;6.154;2024-03-08T10:27:38;34.05;;;22.55;;
47021;SDS011;32779;52.264;6.154;2024-03-08T10:30:06;36.65;;;22.30;;
47021;SDS011;32779;52.264;6.154;2024-03-08T10:32:39;35.72;;;22.65;;
47021;SDS011;32779;52.264;6.154;2024-03-08T10:35:06;35.10;;;21.30;;
47021;SDS011;32779;52.264;6.154;2024-03-08T10:37:33;32.75;;;21.90;;
47021;SDS011;32779;52.264;6.154;2024-03-08T10:40:07;33.80;;;21.83;;
47021;SDS011;32779;52.264;6.154;2024-03-08T10:42:47;35.35;;;21.52;;
47021;SDS011;32779;52.264;6.154;2024-03-08T10:48:16;34.08;;;21.42;;
47021;SDS011;32779;52.264;6.154;2024-03-08T10:50:53;34.80;;;21.13;;
47021;SDS011;32779;52.264;6.154;2024-03-08T10:53:19;35.10;;;21.08;;
47021;SDS011;32779;52.264;6.154;2024-03-08T10:55:49;33.85;;;21.38;;
47021;SDS011;32779;52.264;6.154;2024-03-08T10:58:18;34.33;;;21.25;;
47021;SDS011;32779;52.264;6.154;2024-03-08T11:00:46;36.58;;;21.20;;
47021;SDS011;32779;52.264;6.154;2024-03-08T11:06:05;31.40;;;20.05;;
47021;SDS011;32779;52.264;6.154;2024-03-08T11:08:40;29.85;;;20.00;;
47021;SDS011;32779;52.264;6.154;2024-03-08T11:11:05;36.35;;;21.50;;
47021;SDS011;32779;52.264;6.154;2024-03-08T11:13:52;36.53;;;20.25;;
47021;SDS011;32779;52.264;6.154;2024-03-08T11:18:53;34.03;;;20.48;;
47021;SDS011;32779;52.264;6.154;2024-03-08T11:21:19;42.15;;;21.10;;
47021;SDS011;32779;52.264;6.154;2024-03-08T11:23:58;27.92;;;19.20;;
47021;SDS011;32779;52.264;6.154;2024-03-08T11:26:25;31.63;;;19.67;;
47021;SDS011;32779;52.264;6.154;2024-03-08T11:28:50;31.77;;;21.05;;
47021;SDS011;32779;52.264;6.154;2024-03-08T11:33:47;31.58;;;20.67;;
47021;SDS011;32779;52.264;6.154;2024-03-08T11:36:23;31.58;;;21.25;;
47021;SDS011;32779;52.264;6.154;2024-03-08T11:38:50;30.65;;;19.90;;
47021;SDS011;32779;52.264;6.154;2024-03-08T11:41:24;32.38;;;20.17;;
47021;SDS011;32779;52.264;6.154;2024-03-08T11:44:01;28.80;;;18.65;;
47021;SDS011;32779;52.264;6.154;2024-03-08T11:46:30;31.42;;;19.63;;
47021;SDS011;32779;52.264;6.154;2024-03-08T11:48:55;30.92;;;20.08;;
47021;SDS011;32779;52.264;6.154;2024-03-08T11:51:21;29.88;;;19.05;;
47021;SDS011;32779;52.264;6.154;2024-03-08T11:53:48;29.20;;;18.98;;
47021;SDS011;32779;52.264;6.154;2024-03-08T11:56:15;26.40;;;17.85;;
47021;SDS011;32779;52.264;6.154;2024-03-08T12:01:07;27.20;;;17.70;;
47021;SDS011;32779;52.264;6.154;2024-03-08T12:03:42;29.55;;;18.80;;
47021;SDS011;32779;52.264;6.154;2024-03-08T12:06:08;29.15;;;18.88;;
47021;SDS011;32779;52.264;6.154;2024-03-08T12:08:37;28.42;;;18.05;;
47021;SDS011;32779;52.264;6.154;2024-03-08T12:11:08;26.42;;;17.25;;
47021;SDS011;32779;52.264;6.154;2024-03-08T12:13:35;24.67;;;16.98;;
47021;SDS011;32779;52.264;6.154;2024-03-08T12:16:03;28.40;;;17.90;;
47021;SDS011;32779;52.264;6.154;2024-03-08T12:18:32;24.35;;;16.70;;
47021;SDS011;32779;52.264;6.154;2024-03-08T12:24:00;23.63;;;16.05;;
47021;SDS011;32779;52.264;6.154;2024-03-08T12:26:33;25.33;;;15.43;;
47021;SDS011;32779;52.264;6.154;2024-03-08T12:31:42;23.85;;;14.27;;
47021;SDS011;32779;52.264;6.154;2024-03-08T12:34:08;21.27;;;14.90;;
47021;SDS011;32779;52.264;6.154;2024-03-08T12:36:35;24.23;;;15.93;;
47021;SDS011;32779;52.264;6.154;2024-03-08T12:39:08;23.00;;;15.27;;
47021;SDS011;32779;52.264;6.154;2024-03-08T12:41:39;20.90;;;14.77;;
47021;SDS011;32779;52.264;6.154;2024-03-08T12:44:05;24.02;;;15.13;;
47021;SDS011;32779;52.264;6.154;2024-03-08T12:46:36;21.35;;;14.57;;
47021;SDS011;32779;52.264;6.154;2024-03-08T12:49:05;21.30;;;14.73;;
47021;SDS011;32779;52.264;6.154;2024-03-08T12:51:43;22.85;;;15.52;;
47021;SDS011;32779;52.264;6.154;2024-03-08T12:54:09;25.17;;;15.38;;
47021;SDS011;32779;52.264;6.154;2024-03-08T12:56:35;21.40;;;14.23;;
47021;SDS011;32779;52.264;6.154;2024-03-08T12:59:02;25.42;;;15.48;;
47021;SDS011;32779;52.264;6.154;2024-03-08T13:01:28;24.48;;;15.55;;
47021;SDS011;32779;52.264;6.154;2024-03-08T13:03:55;24.23;;;14.38;;
47021;SDS011;32779;52.264;6.154;2024-03-08T13:06:20;30.55;;;15.35;;
47021;SDS011;32779;52.264;6.154;2024-03-08T13:08:50;24.73;;;15.27;;
47021;SDS011;32779;52.264;6.154;2024-03-08T13:11:17;18.77;;;14.05;;
47021;SDS011;32779;52.264;6.154;2024-03-08T13:13:45;22.35;;;15.60;;
47021;SDS011;32779;52.264;6.154;2024-03-08T13:16:11;22.05;;;14.95;;
47021;SDS011;32779;52.264;6.154;2024-03-08T13:18:40;21.98;;;14.55;;
47021;SDS011;32779;52.264;6.154;2024-03-08T13:21:07;20.67;;;14.18;;
47021;SDS011;32779;52.264;6.154;2024-03-08T13:23:34;24.40;;;15.88;;
47021;SDS011;32779;52.264;6.154;2024-03-08T13:26:04;23.60;;;14.90;;
47021;SDS011;32779;52.264;6.154;2024-03-08T13:28:34;23.38;;;15.23;;
47021;SDS011;32779;52.264;6.154;2024-03-08T13:31:03;23.98;;;14.13;;
47021;SDS011;32779;52.264;6.154;2024-03-08T13:33:32;22.17;;;14.68;;
47021;SDS011;32779;52.264;6.154;2024-03-08T13:36:01;21.83;;;14.60;;
47021;SDS011;32779;52.264;6.154;2024-03-08T13:38:28;23.08;;;14.20;;
47021;SDS011;32779;52.264;6.154;2024-03-08T13:40:54;21.90;;;14.13;;
47021;SDS011;32779;52.264;6.154;2024-03-08T13:43:19;19.05;;;13.68;;
47021;SDS011;32779;52.264;6.154;2024-03-08T13:45:45;22.13;;;14.57;;
47021;SDS011;32779;52.264;6.154;2024-03-08T13:48:11;26.70;;;14.80;;
47021;SDS011;32779;52.264;6.154;2024-03-08T13:50:37;19.80;;;14.13;;
47021;SDS011;32779;52.264;6.154;2024-03-08T13:53:03;22.88;;;14.52;;
47021;SDS011;32779;52.264;6.154;2024-03-08T13:55:29;24.08;;;15.73;;
47021;SDS011;32779;52.264;6.154;2024-03-08T13:57:55;21.92;;;15.05;;
47021;SDS011;32779;52.264;6.154;2024-03-08T14:00:22;21.40;;;14.15;;
47021;SDS011;32779;52.264;6.154;2024-03-08T14:02:48;19.33;;;13.95;;
47021;SDS011;32779;52.264;6.154;2024-03-08T14:05:14;20.45;;;13.85;;
47021;SDS011;32779;52.264;6.154;2024-03-08T14:07:41;21.45;;;13.80;;
47021;SDS011;32779;52.264;6.154;2024-03-08T14:10:06;18.58;;;12.93;;
47021;SDS011;32779;52.264;6.154;2024-03-08T14:12:34;19.70;;;13.13;;
47021;SDS011;32779;52.264;6.154;2024-03-08T14:15:00;19.33;;;13.50;;
47021;SDS011;32779;52.264;6.154;2024-03-08T14:17:26;20.40;;;14.10;;
47021;SDS011;32779;52.264;6.154;2024-03-08T14:19:53;19.02;;;13.15;;
47021;SDS011;32779;52.264;6.154;2024-03-08T14:22:19;19.90;;;13.20;;
47021;SDS011;32779;52.264;6.154;2024-03-08T14:24:45;22.80;;;13.73;;
47021;SDS011;32779;52.264;6.154;2024-03-08T14:27:11;18.95;;;13.20;;
47021;SDS011;32779;52.264;6.154;2024-03-08T14:29:37;22.05;;;13.30;;
47021;SDS011;32779;52.264;6.154;2024-03-08T14:32:04;20.88;;;13.57;;
47021;SDS011;32779;52.264;6.154;2024-03-08T14:34:33;20.70;;;13.65;;
47021;SDS011;32779;52.264;6.154;2024-03-08T14:36:59;20.55;;;14.18;;
47021;SDS011;32779;52.264;6.154;2024-03-08T14:39:25;21.00;;;14.13;;
47021;SDS011;32779;52.264;6.154;2024-03-08T14:41:54;19.55;;;13.98;;
47021;SDS011;32779;52.264;6.154;2024-03-08T14:44:20;18.92;;;13.43;;
47021;SDS011;32779;52.264;6.154;2024-03-08T14:46:57;23.08;;;14.60;;
47021;SDS011;32779;52.264;6.154;2024-03-08T14:49:24;20.00;;;12.60;;
47021;SDS011;32779;52.264;6.154;2024-03-08T14:51:53;17.40;;;12.13;;
47021;SDS011;32779;52.264;6.154;2024-03-08T14:54:19;16.90;;;11.57;;
47021;SDS011;32779;52.264;6.154;2024-03-08T14:56:47;23.55;;;13.40;;